createdAt,value
2022-08-05T00:01:20.919Z,20.00
2022-08-05T00:03:53.843Z,19.80
2022-08-05T00:06:33.232Z,19.70
2022-08-05T00:12:30.393Z,19.60
2022-08-05T00:15:53.933Z,19.60
2022-08-05T00:17:56.775Z,19.50
2022-08-05T00:23:53.731Z,19.30
2022-08-05T00:26:50.716Z,19.30
2022-08-05T00:29:26.161Z,19.40
2022-08-05T00:32:12.301Z,19.40
2022-08-05T00:35:04.281Z,19.50
2022-08-05T00:40:35.250Z,19.60
2022-08-05T00:46:05.278Z,19.80
2022-08-05T00:48:36.523Z,19.60
2022-08-05T00:51:51.657Z,19.50
2022-08-05T00:54:28.181Z,19.60
2022-08-05T00:57:03.284Z,19.70
2022-08-05T00:59:46.085Z,19.70
2022-08-05T01:02:32.537Z,19.70
2022-08-05T01:08:40.930Z,19.50
2022-08-05T01:11:06.977Z,19.60
2022-08-05T01:14:08.827Z,19.60
2022-08-05T01:17:05.533Z,19.60
2022-08-05T01:20:00.829Z,19.60
2022-08-05T01:22:57.455Z,19.50
2022-08-05T01:25:53.209Z,19.40
2022-08-05T01:28:46.977Z,19.30
2022-08-05T01:31:24.435Z,19.20
2022-08-05T01:37:24.593Z,19.40
2022-08-05T01:39:59.061Z,19.40
2022-08-05T01:42:57.396Z,19.40
2022-08-05T01:45:34.900Z,19.40
2022-08-05T01:48:16.569Z,19.20
2022-08-05T01:53:57.016Z,18.90
2022-08-05T01:58:12.660Z,18.90
2022-08-05T01:59:47.270Z,18.90
2022-08-05T02:02:31.451Z,18.80
2022-08-05T02:05:23.713Z,18.70
2022-08-05T02:08:01.288Z,18.70
2022-08-05T02:11:23.655Z,18.60
2022-08-05T02:14:05.551Z,18.70
2022-08-05T02:16:44.170Z,18.80
2022-08-05T02:22:25.831Z,18.70
2022-08-05T02:25:09.590Z,18.60
2022-08-05T02:27:59.398Z,18.60
2022-08-05T02:30:38.759Z,18.60
2022-08-05T02:39:18.067Z,18.40
2022-08-05T02:45:25.217Z,18.30
2022-08-05T02:48:12.548Z,18.30
2022-08-05T02:53:45.448Z,18.20
2022-08-05T02:56:21.561Z,18.20
2022-08-05T02:58:56.403Z,18.10
2022-08-05T03:15:27.117Z,17.70
2022-08-05T03:18:29.972Z,17.70
2022-08-05T03:21:17.034Z,17.60
2022-08-05T03:24:02.814Z,17.60
2022-08-05T03:26:49.508Z,17.60
2022-08-05T03:30:08.061Z,17.50
2022-08-05T03:32:49.094Z,17.40
2022-08-05T03:35:22.058Z,17.30
2022-08-05T03:37:56.021Z,17.20
2022-08-05T03:40:45.168Z,17.10
2022-08-05T03:44:09.797Z,17.10
2022-08-05T03:46:59.734Z,16.90
2022-08-05T03:49:55.229Z,16.80
2022-08-05T03:52:38.841Z,16.70
2022-08-05T03:56:04.209Z,16.60
2022-08-05T03:58:29.537Z,16.60
2022-08-05T04:04:10.486Z,16.30
2022-08-05T04:06:51.860Z,16.20
2022-08-05T04:09:53.434Z,16.10
2022-08-05T04:12:30.543Z,16.00
2022-08-05T04:15:17.776Z,15.90
2022-08-05T04:17:56.674Z,15.80
2022-08-05T04:20:35.606Z,15.70
2022-08-05T04:23:16.401Z,15.60
2022-08-05T04:26:00.520Z,15.60
2022-08-05T04:34:32.598Z,15.40
2022-08-05T04:39:55.768Z,15.20
2022-08-05T04:42:29.231Z,15.10
2022-08-05T04:45:01.046Z,15.10
2022-08-05T04:47:38.595Z,15.10
2022-08-05T04:50:14.744Z,15.10
2022-08-05T04:53:06.387Z,15.00
2022-08-05T04:56:15.129Z,15.00
2022-08-05T05:04:08.209Z,15.00
2022-08-05T05:06:49.338Z,14.90
2022-08-05T05:09:23.838Z,14.90
2022-08-05T05:12:01.702Z,14.90
2022-08-05T05:14:36.311Z,14.90
2022-08-05T05:17:09.525Z,14.90
2022-08-05T05:19:47.525Z,14.80
2022-08-05T05:22:24.152Z,14.80
2022-08-05T05:25:01.221Z,14.70
2022-08-05T05:27:54.047Z,14.70
2022-08-05T05:30:29.237Z,14.80
2022-08-05T05:33:08.766Z,14.80
2022-08-05T05:35:49.004Z,14.80
2022-08-05T05:38:22.706Z,14.90
2022-08-05T05:41:08.304Z,14.80
2022-08-05T05:43:56.845Z,14.80
2022-08-05T05:49:33.166Z,14.80
2022-08-05T05:52:07.436Z,14.70
2022-08-05T05:54:52.078Z,14.70
2022-08-05T05:57:24.065Z,14.60
2022-08-05T06:00:17.108Z,14.60
2022-08-05T06:05:46.827Z,14.40
2022-08-05T06:08:31.528Z,14.30
2022-08-05T06:11:04.831Z,14.30
2022-08-05T06:16:30.851Z,14.30
2022-08-05T06:19:05.936Z,14.20
2022-08-05T06:21:42.949Z,14.20
2022-08-05T06:32:46.728Z,14.00
2022-08-05T06:36:04.215Z,13.90
2022-08-05T06:38:11.901Z,13.90
2022-08-05T06:40:44.341Z,13.80
2022-08-05T06:43:58.000Z,13.80
2022-08-05T06:46:07.899Z,13.70
2022-08-05T06:48:55.494Z,13.60
2022-08-05T06:51:34.180Z,13.60
2022-08-05T06:54:08.090Z,13.60
2022-08-05T06:56:55.092Z,13.60
2022-08-05T06:59:38.591Z,13.50
2022-08-05T07:02:10.194Z,13.50
2022-08-05T07:04:44.006Z,13.50
2022-08-05T07:07:24.028Z,13.50
2022-08-05T07:10:08.176Z,13.40
2022-08-05T07:12:56.485Z,13.40
2022-08-05T07:16:00.911Z,13.40
2022-08-05T07:18:35.293Z,13.40
2022-08-05T07:21:10.015Z,13.40
2022-08-05T07:23:49.919Z,13.30
2022-08-05T07:26:25.012Z,13.20
2022-08-05T07:28:57.541Z,13.30
2022-08-05T07:31:40.773Z,13.30
2022-08-05T07:34:27.434Z,13.20
2022-08-05T07:37:02.483Z,13.20
2022-08-05T07:40:26.933Z,13.20
2022-08-05T07:42:36.385Z,13.10
2022-08-05T07:45:09.457Z,13.10
2022-08-05T07:47:46.298Z,13.10
2022-08-05T07:50:32.442Z,13.00
2022-08-05T07:53:13.307Z,13.10
2022-08-05T07:56:05.575Z,13.10
2022-08-05T07:58:57.865Z,13.00
2022-08-05T08:01:29.430Z,13.00
2022-08-05T08:04:01.629Z,12.90
2022-08-05T08:06:34.490Z,12.90
2022-08-05T08:09:10.346Z,12.90
2022-08-05T08:11:48.288Z,12.80
2022-08-05T08:14:25.938Z,12.80
2022-08-05T08:16:57.309Z,12.80
2022-08-05T08:20:44.014Z,12.80
2022-08-05T08:22:21.141Z,12.80
2022-08-05T08:25:03.291Z,12.90
2022-08-05T08:27:45.093Z,12.90
2022-08-05T08:30:32.237Z,12.90
2022-08-05T08:33:13.892Z,12.90
2022-08-05T08:35:53.984Z,12.90
2022-08-05T08:38:39.824Z,12.90
2022-08-05T08:41:17.721Z,12.90
2022-08-05T08:45:24.775Z,12.80
2022-08-05T08:46:41.890Z,12.80
2022-08-05T08:50:14.138Z,12.80
2022-08-05T08:52:15.506Z,12.70
2022-08-05T08:54:49.049Z,12.70
2022-08-05T08:57:22.774Z,12.70
2022-08-05T09:00:04.417Z,12.70
2022-08-05T09:02:36.600Z,12.60
2022-08-05T09:05:17.809Z,12.50
2022-08-05T09:07:57.738Z,12.50
2022-08-05T09:10:29.792Z,12.50
2022-08-05T09:13:04.957Z,12.50
2022-08-05T09:15:37.713Z,12.40
2022-08-05T09:18:13.422Z,12.40
2022-08-05T09:20:45.457Z,12.30
2022-08-05T09:23:21.731Z,12.40
2022-08-05T09:26:01.028Z,12.30
2022-08-05T09:28:38.301Z,12.40
2022-08-05T09:31:44.023Z,12.40
2022-08-05T09:34:09.672Z,12.40
2022-08-05T09:36:55.034Z,12.40
2022-08-05T09:39:41.773Z,12.40
2022-08-05T09:42:24.469Z,12.30
2022-08-05T09:46:04.945Z,12.30
2022-08-05T09:48:02.273Z,12.30
2022-08-05T09:50:44.531Z,12.40
2022-08-05T09:53:25.777Z,12.30
2022-08-05T09:56:13.108Z,12.40
2022-08-05T09:58:44.898Z,12.30
2022-08-05T10:01:32.320Z,12.20
2022-08-05T10:06:54.622Z,12.10
2022-08-05T10:09:28.291Z,12.00
2022-08-05T10:12:30.547Z,12.00
2022-08-05T10:15:25.755Z,12.00
2022-08-05T10:18:20.788Z,11.90
2022-08-05T10:20:55.642Z,11.90
2022-08-05T10:23:50.909Z,11.90
2022-08-05T10:26:24.227Z,11.90
2022-08-05T10:29:04.127Z,11.90
2022-08-05T10:32:53.996Z,11.90
2022-08-05T10:34:31.142Z,11.90
2022-08-05T10:37:03.690Z,11.90
2022-08-05T10:40:03.639Z,11.90
2022-08-05T10:42:34.574Z,11.90
2022-08-05T10:45:09.793Z,11.90
2022-08-05T10:48:29.670Z,11.80
2022-08-05T10:51:04.653Z,11.80
2022-08-05T10:54:00.996Z,11.80
2022-08-05T10:56:49.328Z,11.80
2022-08-05T11:00:02.127Z,11.70
2022-08-05T11:02:38.410Z,11.70
2022-08-05T11:05:13.799Z,11.70
2022-08-05T11:08:22.181Z,11.70
2022-08-05T11:11:00.289Z,11.70
2022-08-05T11:13:57.605Z,11.60
2022-08-05T11:16:33.866Z,11.60
2022-08-05T11:20:17.095Z,11.60
2022-08-05T11:22:49.878Z,11.60
2022-08-05T11:26:08.843Z,11.50
2022-08-05T11:28:51.400Z,11.50
2022-08-05T11:31:58.744Z,11.50
2022-08-05T11:34:22.545Z,11.40
2022-08-05T11:36:57.353Z,11.40
2022-08-05T11:40:00.528Z,11.40
2022-08-05T11:42:40.220Z,11.40
2022-08-05T11:46:14.639Z,11.40
2022-08-05T11:48:13.033Z,11.50
2022-08-05T11:50:47.101Z,11.50
2022-08-05T11:53:21.068Z,11.50
2022-08-05T11:56:03.718Z,11.50
2022-08-05T11:58:42.003Z,11.50
2022-08-05T12:01:29.862Z,11.50
2022-08-05T12:04:01.190Z,11.50
2022-08-05T12:06:32.950Z,11.50
2022-08-05T12:09:05.575Z,11.40
2022-08-05T12:11:40.375Z,11.40
2022-08-05T12:14:14.206Z,11.40
2022-08-05T12:16:50.181Z,11.40
2022-08-05T12:20:26.184Z,11.40
2022-08-05T12:22:19.901Z,11.30
2022-08-05T12:24:53.254Z,11.30
2022-08-05T12:27:25.609Z,11.20
2022-08-05T12:30:32.354Z,11.30
2022-08-05T12:33:07.235Z,11.20
2022-08-05T12:35:57.591Z,11.20
2022-08-05T12:38:30.247Z,11.30
2022-08-05T12:41:09.680Z,11.30
2022-08-05T12:43:55.694Z,11.20
2022-08-05T12:46:31.400Z,11.20
2022-08-05T12:49:13.600Z,11.30
2022-08-05T12:52:12.353Z,11.20
2022-08-05T12:54:41.317Z,11.20
2022-08-05T12:57:14.327Z,11.30
2022-08-05T13:01:58.386Z,11.20
2022-08-05T13:02:47.228Z,11.20
2022-08-05T13:05:22.643Z,11.20
2022-08-05T13:07:59.792Z,11.20
2022-08-05T13:10:34.506Z,11.20
2022-08-05T13:13:10.615Z,11.30
2022-08-05T13:16:01.786Z,11.30
2022-08-05T13:18:43.422Z,11.20
2022-08-05T13:21:14.595Z,11.20
2022-08-05T13:23:50.892Z,11.20
2022-08-05T13:26:30.183Z,11.30
2022-08-05T13:29:01.739Z,11.30
2022-08-05T13:32:05.024Z,11.30
2022-08-05T13:34:26.653Z,11.30
2022-08-05T13:36:58.127Z,11.30
2022-08-05T13:40:16.257Z,11.30
2022-08-05T13:42:20.992Z,11.30
2022-08-05T13:44:56.161Z,11.30
2022-08-05T13:48:08.330Z,11.40
2022-08-05T13:50:25.778Z,11.40
2022-08-05T13:52:56.999Z,11.50
2022-08-05T13:55:40.984Z,11.50
2022-08-05T13:58:13.349Z,11.60
2022-08-05T14:01:02.165Z,11.60
2022-08-05T14:03:34.124Z,11.70
2022-08-05T14:06:26.932Z,11.70
2022-08-05T14:08:59.564Z,11.80
2022-08-05T14:11:31.596Z,11.90
2022-08-05T14:14:04.410Z,11.90
2022-08-05T14:16:35.815Z,12.00
2022-08-05T14:19:07.802Z,12.00
2022-08-05T14:22:08.304Z,12.00
2022-08-05T14:24:35.427Z,12.10
2022-08-05T14:27:17.476Z,12.20
2022-08-05T14:29:52.031Z,12.20
2022-08-05T14:32:26.795Z,12.30
2022-08-05T14:34:58.810Z,12.30
2022-08-05T14:37:45.287Z,12.40
2022-08-05T14:40:19.885Z,12.40
2022-08-05T14:42:56.057Z,12.50
2022-08-05T14:45:27.575Z,12.40
2022-08-05T14:48:05.188Z,12.50
2022-08-05T14:50:39.822Z,12.50
2022-08-05T14:53:17.073Z,12.60
2022-08-05T14:55:52.393Z,12.70
2022-08-05T14:58:23.852Z,12.80
2022-08-05T15:00:59.388Z,12.90
2022-08-05T15:03:39.173Z,13.10
2022-08-05T15:06:15.273Z,13.30
2022-08-05T15:09:01.186Z,13.50
2022-08-05T15:11:53.725Z,13.70
2022-08-05T15:20:33.347Z,14.40
2022-08-05T15:23:07.914Z,14.50
2022-08-05T15:25:55.874Z,14.60
2022-08-05T15:28:44.611Z,14.60
2022-08-05T15:31:34.443Z,14.60
2022-08-05T15:34:31.394Z,14.70
2022-08-05T15:37:14.827Z,14.90
2022-08-05T15:40:59.706Z,14.80
2022-08-05T15:42:56.682Z,15.00
2022-08-05T15:52:13.974Z,15.50
2022-08-05T15:54:19.644Z,15.50
2022-08-05T15:56:51.587Z,15.40
2022-08-05T15:59:26.641Z,15.50
2022-08-05T16:02:00.997Z,15.50
2022-08-05T16:04:32.405Z,15.70
2022-08-05T16:07:04.217Z,15.80
2022-08-05T16:09:37.735Z,15.90
2022-08-05T16:12:13.304Z,16.00
2022-08-05T16:14:48.496Z,15.90
2022-08-05T16:17:20.317Z,16.00
2022-08-05T16:20:11.773Z,15.90
2022-08-05T16:22:43.385Z,16.10
2022-08-05T16:25:15.082Z,16.20
2022-08-05T16:28:00.925Z,16.10
2022-08-05T16:30:39.880Z,16.20
2022-08-05T16:33:13.285Z,16.20
2022-08-05T16:35:52.469Z,16.20
2022-08-05T16:38:28.026Z,16.20
2022-08-05T16:41:01.628Z,16.40
2022-08-05T16:43:34.995Z,16.50
2022-08-05T16:46:23.981Z,16.50
2022-08-05T16:48:56.004Z,16.50
2022-08-05T16:51:30.674Z,16.70
2022-08-05T16:54:17.407Z,16.70
2022-08-05T16:56:52.426Z,16.70
2022-08-05T16:59:23.192Z,16.80
2022-08-05T17:02:00.982Z,16.90
2022-08-05T17:04:33.084Z,17.20
2022-08-05T17:07:38.914Z,17.30
2022-08-05T17:10:19.910Z,17.40
2022-08-05T17:12:53.244Z,17.40
2022-08-05T17:15:29.383Z,17.40
2022-08-05T17:18:30.390Z,17.50
2022-08-05T17:21:03.808Z,17.40
2022-08-05T17:26:55.624Z,17.50
2022-08-05T17:29:33.791Z,17.70
2022-08-05T17:32:16.727Z,17.60
2022-08-05T17:34:54.058Z,17.50
2022-08-05T17:37:40.938Z,17.50
2022-08-05T17:40:22.523Z,17.50
2022-08-05T17:42:54.770Z,17.50
2022-08-05T17:45:38.279Z,17.40
2022-08-05T17:48:11.230Z,17.40
2022-08-05T17:50:46.366Z,17.50
2022-08-05T17:53:18.124Z,17.50
2022-08-05T17:55:52.616Z,17.70
2022-08-05T17:58:32.458Z,17.70
2022-08-05T18:01:08.173Z,17.80
2022-08-05T18:04:03.883Z,17.90
2022-08-05T18:06:42.344Z,17.90
2022-08-05T18:09:16.984Z,18.00
2022-08-05T18:11:52.402Z,18.10
2022-08-05T18:14:33.070Z,18.20
2022-08-05T18:17:07.200Z,18.20
2022-08-05T18:19:58.254Z,18.30
2022-08-05T18:22:46.202Z,18.50
2022-08-05T18:25:23.507Z,18.60
2022-08-05T18:27:56.701Z,18.70
2022-08-05T18:30:43.295Z,18.90
2022-08-05T18:33:22.734Z,19.00
2022-08-05T18:36:03.376Z,19.10
2022-08-05T18:38:41.813Z,19.10
2022-08-05T18:41:57.002Z,19.20
2022-08-05T18:44:25.871Z,19.30
2022-08-05T18:47:04.759Z,19.40
2022-08-05T18:52:51.895Z,19.50
2022-08-05T18:55:25.907Z,19.80
2022-08-05T18:58:04.666Z,19.90
2022-08-05T19:03:53.309Z,20.00
2022-08-05T19:06:21.871Z,20.10
2022-08-05T19:09:06.095Z,20.20
2022-08-05T19:12:00.439Z,20.30
2022-08-05T19:14:53.465Z,20.40
2022-08-05T19:17:22.571Z,20.50
2022-08-05T19:20:01.899Z,20.50
2022-08-05T19:22:34.651Z,20.50
2022-08-05T19:25:29.535Z,20.50
2022-08-05T19:28:04.575Z,20.60
2022-08-05T19:30:37.025Z,20.60
2022-08-05T19:33:16.814Z,20.70
2022-08-05T19:35:57.506Z,20.80
2022-08-05T19:38:29.124Z,20.90
2022-08-05T19:41:00.538Z,20.80
2022-08-05T19:44:06.628Z,20.80
2022-08-05T19:46:28.985Z,20.80
2022-08-05T19:49:03.569Z,20.90
2022-08-05T19:52:04.299Z,21.00
2022-08-05T19:54:31.159Z,21.00
2022-08-05T19:57:06.561Z,21.00
2022-08-05T19:59:54.966Z,21.10
2022-08-05T20:02:35.199Z,21.20
2022-08-05T20:05:16.627Z,21.40
2022-08-05T20:07:59.170Z,21.50
2022-08-05T20:10:31.388Z,21.40
2022-08-05T20:13:03.984Z,21.50
2022-08-05T20:15:51.904Z,21.70
2022-08-05T20:18:33.120Z,21.80
2022-08-05T20:21:09.519Z,21.90
2022-08-05T20:23:51.253Z,22.00
2022-08-05T20:26:25.759Z,22.10
2022-08-05T20:29:01.098Z,22.10
2022-08-05T20:31:41.958Z,22.20
2022-08-05T20:34:23.007Z,22.10
2022-08-05T20:36:54.718Z,22.10
2022-08-05T20:39:35.579Z,22.20
2022-08-05T20:42:11.556Z,22.20
2022-08-05T20:44:48.462Z,22.30
2022-08-05T20:50:14.466Z,22.40
2022-08-05T20:53:01.351Z,22.30
2022-08-05T20:55:55.071Z,22.30
2022-08-05T20:58:29.567Z,22.30
2022-08-05T21:01:05.811Z,22.30
2022-08-05T21:03:47.882Z,22.50
2022-08-05T21:06:28.228Z,22.70
2022-08-05T21:09:05.371Z,22.80
2022-08-05T21:12:06.895Z,22.90
2022-08-05T21:14:28.237Z,23.00
2022-08-05T21:17:01.104Z,23.20
2022-08-05T21:19:46.954Z,23.30
2022-08-05T21:22:33.055Z,23.50
2022-08-05T21:27:41.956Z,23.40
2022-08-05T21:30:38.264Z,23.50
2022-08-05T21:33:23.481Z,23.60
2022-08-05T21:35:59.309Z,23.70
2022-08-05T21:38:31.379Z,23.70
2022-08-05T21:41:03.571Z,23.90
2022-08-05T21:43:41.800Z,23.90
2022-08-05T21:49:02.203Z,24.10
2022-08-05T21:54:40.029Z,24.30
2022-08-05T21:57:31.657Z,24.50
2022-08-05T22:00:06.336Z,24.80
2022-08-05T22:02:38.292Z,25.00
2022-08-05T22:05:14.509Z,25.10
2022-08-05T22:07:58.978Z,25.00
2022-08-05T22:10:31.577Z,25.10
2022-08-05T22:13:58.794Z,25.20
2022-08-05T22:16:00.570Z,25.20
2022-08-05T22:21:24.928Z,25.60
2022-08-05T22:24:39.529Z,25.80
2022-08-05T22:28:09.439Z,25.70
2022-08-05T22:30:20.566Z,25.40
2022-08-05T22:32:52.255Z,25.40
2022-08-05T22:35:25.974Z,25.40
2022-08-05T22:38:03.031Z,25.50
2022-08-05T22:40:39.411Z,25.60
2022-08-05T22:43:12.529Z,25.80
2022-08-05T22:45:44.486Z,25.80
2022-08-05T22:48:17.246Z,26.00
2022-08-05T22:50:56.177Z,26.10
2022-08-05T22:53:35.599Z,25.90
2022-08-05T22:56:10.768Z,25.70
2022-08-05T22:58:44.441Z,25.70
2022-08-05T23:01:17.556Z,25.90
2022-08-05T23:03:58.902Z,25.80
2022-08-05T23:06:30.785Z,25.80
2022-08-05T23:09:27.314Z,25.70
2022-08-05T23:11:57.301Z,26.00
2022-08-05T23:14:31.789Z,25.80
2022-08-05T23:17:24.564Z,26.00
2022-08-05T23:20:16.807Z,26.40
2022-08-05T23:22:49.595Z,26.60
2022-08-05T23:25:51.635Z,26.40
2022-08-05T23:28:29.062Z,26.50
2022-08-05T23:31:16.267Z,26.60
2022-08-05T23:34:06.140Z,26.50
2022-08-05T23:36:44.291Z,26.50
2022-08-05T23:39:32.287Z,26.30
2022-08-05T23:42:14.458Z,26.40
2022-08-05T23:44:54.426Z,26.60
2022-08-05T23:47:26.041Z,26.80
2022-08-05T23:50:00.245Z,26.70
2022-08-05T23:52:35.795Z,26.60
2022-08-05T23:55:11.061Z,26.50
2022-08-05T23:57:44.724Z,26.50
